Time;durP1;ratioP1;P1;durP2;ratioP2;P2;SDS_P1;SDS_P2;PMS_P1;PMS_P2;Temp;Humidity;BMP_temperature;BMP_pressure;BME280_temperature;BME280_humidity;BME280_pressure;Samples;Min_cycle;Max_cycle;Signal;HPM_P1;HPM_P2
2023/03/22 00:00:26;;;;;;;0.88;0.88;;;10.30;92.60;;;;;;4983385;28;20560;-77
2023/03/22 00:02:54;;;;;;;0.95;0.95;;;10.20;92.70;;;;;;4982910;28;20184;-77
2023/03/22 00:05:20;;;;;;;0.60;0.60;;;10.10;93.10;;;;;;4983585;28;20182;-77
2023/03/22 00:07:49;;;;;;;0.80;0.80;;;10.10;93.60;;;;;;4986006;28;20193;-77
2023/03/22 00:10:15;;;;;;;0.90;0.90;;;10.10;93.80;;;;;;4984341;28;20206;-76
2023/03/22 00:12:41;;;;;;;0.83;0.83;;;10.10;94.10;;;;;;4981835;28;20181;-77
2023/03/22 00:15:08;;;;;;;1.20;1.10;;;10.10;94.10;;;;;;4981691;28;20191;-77
2023/03/22 00:17:35;;;;;;;0.75;0.75;;;10.10;94.30;;;;;;4983736;28;20187;-76
2023/03/22 00:20:05;;;;;;;0.90;0.90;;;10.10;94.50;;;;;;4982295;28;20182;-77
2023/03/22 00:22:31;;;;;;;0.80;0.80;;;10.10;94.50;;;;;;4984246;28;20189;-77
2023/03/22 00:24:57;;;;;;;0.75;0.65;;;10.20;94.50;;;;;;4984973;28;20174;-76
2023/03/22 00:27:22;;;;;;;0.60;0.60;;;10.20;94.40;;;;;;4979378;28;20272;-77
2023/03/22 00:29:51;;;;;;;0.90;0.80;;;10.20;94.70;;;;;;4981579;28;20241;-77
2023/03/22 00:32:17;;;;;;;0.70;0.70;;;10.20;94.30;;;;;;4982183;28;20553;-77
2023/03/22 00:34:43;;;;;;;0.57;0.57;;;10.20;94.50;;;;;;4982347;28;20255;-77
2023/03/22 00:37:08;;;;;;;0.90;0.90;;;10.20;94.60;;;;;;4983763;28;20190;-77
2023/03/22 00:39:34;;;;;;;0.70;0.70;;;10.30;94.30;;;;;;4983755;28;21773;-76
2023/03/22 00:42:00;;;;;;;0.70;0.70;;;10.30;94.10;;;;;;4984899;28;20263;-76
2023/03/22 00:44:26;;;;;;;0.60;0.60;;;10.30;93.60;;;;;;4980580;28;20659;-76
2023/03/22 00:46:51;;;;;;;1.00;0.60;;;10.30;93.80;;;;;;4983246;28;20197;-77
2023/03/22 00:49:17;;;;;;;0.60;0.60;;;10.20;94.40;;;;;;4983650;28;20704;-77
2023/03/22 00:51:43;;;;;;;0.60;0.60;;;10.20;94.20;;;;;;4979735;28;20627;-76
2023/03/22 00:54:09;;;;;;;0.50;0.50;;;10.20;94.60;;;;;;4977124;28;20193;-76
2023/03/22 00:56:36;;;;;;;0.60;0.60;;;10.20;94.10;;;;;;4980853;28;20186;-76
2023/03/22 00:59:02;;;;;;;0.60;0.60;;;10.10;94.40;;;;;;4987531;28;20268;-76
2023/03/22 01:01:28;;;;;;;0.70;0.70;;;10.10;94.30;;;;;;4980099;28;20185;-76
2023/03/22 01:03:54;;;;;;;0.50;0.50;;;10.00;94.60;;;;;;4981624;28;20178;-75
2023/03/22 01:06:19;;;;;;;0.70;0.70;;;10.00;94.60;;;;;;4982947;28;20303;-76
2023/03/22 01:08:45;;;;;;;0.83;0.77;;;9.90;95.00;;;;;;4981276;28;20189;-76
2023/03/22 01:11:11;;;;;;;0.60;0.60;;;9.80;95.20;;;;;;4982172;28;20818;-76
2023/03/22 01:13:38;;;;;;;0.60;0.60;;;9.70;95.30;;;;;;4978257;28;20186;-77
2023/03/22 01:16:05;;;;;;;0.80;0.80;;;9.70;95.40;;;;;;4982982;28;20180;-76
2023/03/22 01:18:31;;;;;;;0.70;0.70;;;9.70;95.40;;;;;;4987243;28;20244;-76
2023/03/22 01:20:58;;;;;;;1.03;1.03;;;9.70;95.50;;;;;;4985403;28;20194;-76
2023/03/22 01:23:24;;;;;;;0.63;0.63;;;9.70;95.30;;;;;;4982860;28;20563;-76
2023/03/22 01:25:49;;;;;;;0.57;0.57;;;9.80;94.70;;;;;;4984007;28;20186;-76
2023/03/22 01:28:15;;;;;;;0.60;0.60;;;9.90;94.10;;;;;;4981174;28;20578;-76
2023/03/22 01:30:41;;;;;;;1.23;0.80;;;9.80;93.90;;;;;;4979741;28;20237;-76
2023/03/22 01:33:07;;;;;;;0.87;0.87;;;9.90;93.90;;;;;;4983409;28;20188;-76
2023/03/22 01:35:34;;;;;;;0.60;0.60;;;9.80;94.50;;;;;;4978486;28;20185;-76
2023/03/22 01:38:00;;;;;;;1.93;0.77;;;9.80;93.90;;;;;;4982599;28;20235;-76
2023/03/22 01:40:26;;;;;;;0.70;0.70;;;9.90;93.70;;;;;;4985149;28;20270;-76
2023/03/22 01:42:53;;;;;;;1.03;0.90;;;9.80;94.50;;;;;;4979234;28;20257;-76
2023/03/22 01:45:30;;;;;;;0.90;0.90;;;9.80;94.50;;;;;;4982083;28;20197;-76
2023/03/22 01:48:01;;;;;;;0.80;0.80;;;9.70;94.20;;;;;;4982389;28;20628;-76
2023/03/22 01:50:30;;;;;;;1.00;1.00;;;9.70;94.60;;;;;;4980259;28;20220;-76
2023/03/22 01:52:58;;;;;;;1.00;1.00;;;9.70;95.00;;;;;;4983497;28;20573;-76
2023/03/22 01:55:24;;;;;;;0.73;0.73;;;9.70;95.30;;;;;;4976894;28;20182;-76
2023/03/22 01:57:52;;;;;;;0.80;0.80;;;9.70;95.50;;;;;;4979078;28;20273;-76
2023/03/22 02:00:19;;;;;;;0.80;0.80;;;9.60;95.40;;;;;;4980111;28;20748;-76
2023/03/22 02:02:49;;;;;;;0.80;0.80;;;9.60;95.50;;;;;;4978812;28;20217;-76
2023/03/22 02:05:15;;;;;;;0.80;0.80;;;9.60;95.40;;;;;;4977141;28;20178;-76
2023/03/22 02:07:42;;;;;;;0.70;0.70;;;9.50;95.70;;;;;;4978885;28;20181;-76
2023/03/22 02:10:15;;;;;;;0.67;0.67;;;9.50;94.90;;;;;;4980985;28;22005;-75
2023/03/22 02:13:05;;;;;;;0.60;0.60;;;9.50;95.10;;;;;;4982367;28;20555;-75
2023/03/22 02:15:46;;;;;;;0.80;0.80;;;9.50;95.60;;;;;;4979624;28;20215;-75
2023/03/22 02:18:30;;;;;;;0.63;0.60;;;9.50;95.00;;;;;;4978901;28;20802;-76
2023/03/22 02:21:36;;;;;;;0.63;0.63;;;9.50;94.80;;;;;;4980209;28;20269;-76
2023/03/22 02:24:45;;;;;;;0.73;0.73;;;9.50;94.20;;;;;;4982705;28;20217;-76
2023/03/22 02:27:15;;;;;;;0.87;0.87;;;9.50;94.60;;;;;;4927006;29;20195;-76
2023/03/22 02:29:53;;;;;;;0.80;0.80;;;9.50;95.20;;;;;;4927704;29;22173;-76
2023/03/22 02:32:37;;;;;;;1.00;1.00;;;9.50;95.70;;;;;;4926192;29;20203;-76
2023/03/22 02:35:20;;;;;;;0.90;0.90;;;9.40;95.70;;;;;;4926982;29;20221;-76
2023/03/22 02:38:13;;;;;;;1.07;1.07;;;9.40;96.00;;;;;;4911278;29;20199;-76
2023/03/22 02:40:44;;;;;;;0.57;0.57;;;9.40;95.70;;;;;;4926943;29;20202;-77
2023/03/22 02:43:50;;;;;;;0.73;0.73;;;9.40;96.10;;;;;;4926507;29;20752;-76
2023/03/22 02:46:42;;;;;;;0.70;0.70;;;9.40;96.20;;;;;;4926376;29;20191;-77
2023/03/22 02:49:29;;;;;;;0.70;0.70;;;9.40;96.50;;;;;;4924818;29;20188;-76
2023/03/22 02:52:10;;;;;;;0.67;0.67;;;9.30;96.40;;;;;;4926917;29;20707;-76
2023/03/22 02:55:06;;;;;;;1.33;0.60;;;9.30;96.80;;;;;;4909399;29;20282;-76
2023/03/22 02:57:44;;;;;;;0.50;0.50;;;9.30;96.40;;;;;;4926046;29;20350;-75
2023/03/22 03:00:13;;;;;;;0.50;0.50;;;9.30;96.50;;;;;;4925921;29;20673;-75
2023/03/22 03:02:44;;;;;;;0.53;0.53;;;9.10;96.80;;;;;;4927242;29;20195;-77
2023/03/22 03:05:12;;;;;;;0.40;0.40;;;9.10;96.70;;;;;;4969249;28;20194;-75
2023/03/22 03:07:40;;;;;;;0.60;0.60;;;9.20;96.60;;;;;;4978477;28;20193;-77
2023/03/22 03:10:07;;;;;;;0.50;0.50;;;9.20;96.70;;;;;;4978883;28;20206;-77
2023/03/22 03:12:33;;;;;;;0.47;0.47;;;9.20;96.90;;;;;;4980803;28;20186;-76
2023/03/22 03:14:59;;;;;;;0.30;0.30;;;9.20;96.90;;;;;;4979613;28;20185;-76
2023/03/22 03:17:46;;;;;;;0.40;0.40;;;9.20;96.80;;;;;;4982848;28;20185;-76
2023/03/22 03:20:28;;;;;;;0.40;0.40;;;9.20;96.50;;;;;;4982041;28;20185;-75
2023/03/22 03:23:15;;;;;;;0.40;0.40;;;9.20;96.80;;;;;;4978783;28;20182;-75
2023/03/22 03:25:45;;;;;;;0.50;0.50;;;9.20;96.60;;;;;;4981466;28;20220;-75
2023/03/22 03:28:37;;;;;;;0.40;0.40;;;9.20;96.90;;;;;;4981052;28;20174;-75
2023/03/22 03:31:08;;;;;;;0.53;0.53;;;9.30;97.00;;;;;;4981429;28;20213;-76
2023/03/22 03:33:39;;;;;;;0.40;0.40;;;9.30;96.90;;;;;;4978046;28;20222;-75
2023/03/22 03:36:09;;;;;;;0.43;0.43;;;9.30;96.70;;;;;;4976525;28;20183;-75
2023/03/22 03:38:40;;;;;;;0.40;0.40;;;9.40;96.50;;;;;;4981313;28;20209;-75
2023/03/22 03:41:11;;;;;;;0.30;0.30;;;9.40;96.50;;;;;;4980945;28;20205;-75
2023/03/22 03:43:38;;;;;;;0.40;0.40;;;9.40;96.60;;;;;;4977022;28;20566;-75
2023/03/22 03:46:05;;;;;;;0.30;0.30;;;9.40;96.20;;;;;;4978008;28;20658;-75
2023/03/22 03:48:33;;;;;;;0.50;0.50;;;9.40;96.20;;;;;;4982422;28;20210;-75
2023/03/22 03:51:00;;;;;;;0.40;0.40;;;9.40;96.20;;;;;;4985182;28;20209;-75
2023/03/22 03:53:27;;;;;;;0.40;0.40;;;9.40;96.20;;;;;;4982485;28;20178;-74
2023/03/22 03:55:52;;;;;;;0.30;0.30;;;9.50;95.70;;;;;;4978431;28;20206;-76
2023/03/22 03:58:18;;;;;;;0.40;0.40;;;9.50;95.20;;;;;;4981543;28;20224;-76
2023/03/22 04:00:45;;;;;;;0.40;0.40;;;9.40;95.10;;;;;;4983228;28;20236;-76
2023/03/22 04:03:11;;;;;;;0.47;0.47;;;9.40;95.00;;;;;;4986369;28;20574;-76
2023/03/22 04:05:37;;;;;;;0.20;0.20;;;9.40;95.10;;;;;;4982965;28;20181;-76
2023/03/22 04:08:04;;;;;;;0.40;0.40;;;9.40;94.70;;;;;;4981723;28;20249;-76
2023/03/22 04:10:29;;;;;;;0.40;0.40;;;9.40;94.80;;;;;;4980315;28;20233;-76
2023/03/22 04:12:55;;;;;;;0.27;0.27;;;9.40;94.80;;;;;;4984658;28;20185;-76
2023/03/22 04:15:21;;;;;;;0.50;0.50;;;9.40;94.90;;;;;;4983702;28;20737;-76
2023/03/22 04:17:47;;;;;;;2.30;0.60;;;9.40;94.60;;;;;;4980483;28;20278;-76
2023/03/22 04:20:14;;;;;;;0.83;0.37;;;9.40;94.30;;;;;;4983563;28;20701;-76
2023/03/22 04:22:40;;;;;;;0.43;0.43;;;9.40;94.50;;;;;;4983397;28;20718;-76
2023/03/22 04:25:16;;;;;;;0.40;0.40;;;9.40;94.20;;;;;;4979450;28;20186;-76
2023/03/22 04:27:44;;;;;;;0.60;0.60;;;9.40;94.30;;;;;;4999306;28;20720;-76
2023/03/22 04:30:17;;;;;;;0.50;0.50;;;9.40;94.60;;;;;;4981105;28;20307;-75
2023/03/22 04:32:44;;;;;;;0.40;0.40;;;9.40;94.70;;;;;;4984842;28;20272;-75
2023/03/22 04:35:10;;;;;;;0.30;0.30;;;9.30;95.40;;;;;;4981981;28;20182;-76
2023/03/22 04:37:35;;;;;;;1.07;0.53;;;9.30;95.80;;;;;;4980856;28;20240;-75
2023/03/22 04:40:05;;;;;;;0.30;0.30;;;9.30;95.90;;;;;;4981019;28;20251;-76
2023/03/22 04:42:31;;;;;;;0.50;0.50;;;9.20;96.10;;;;;;4979574;28;20178;-76
2023/03/22 04:44:57;;;;;;;0.50;0.50;;;9.20;96.20;;;;;;4983281;28;20305;-76
2023/03/22 04:47:22;;;;;;;0.40;0.40;;;9.20;96.00;;;;;;4985163;28;20562;-75
2023/03/22 04:49:48;;;;;;;0.40;0.40;;;9.30;96.30;;;;;;4981866;28;20285;-77
2023/03/22 04:52:14;;;;;;;0.47;0.47;;;9.20;96.50;;;;;;4982804;28;20265;-77
2023/03/22 04:54:40;;;;;;;0.50;0.50;;;9.20;96.60;;;;;;4981156;28;20660;-75
2023/03/22 04:57:06;;;;;;;0.67;0.60;;;9.20;96.40;;;;;;4982252;28;20236;-75
2023/03/22 04:59:32;;;;;;;0.50;0.50;;;9.20;96.20;;;;;;4980733;28;20186;-76
2023/03/22 05:01:58;;;;;;;0.40;0.40;;;9.20;96.70;;;;;;4979542;28;20269;-75
2023/03/22 05:04:23;;;;;;;0.67;0.67;;;9.20;97.00;;;;;;4980518;28;20189;-77
2023/03/22 05:06:49;;;;;;;0.50;0.50;;;9.10;97.10;;;;;;4983637;28;20170;-81
2023/03/22 05:09:15;;;;;;;0.47;0.47;;;9.10;97.30;;;;;;4986816;28;20177;-80
2023/03/22 05:11:41;;;;;;;0.50;0.50;;;9.00;97.40;;;;;;4983701;28;20216;-78
2023/03/22 05:14:08;;;;;;;0.40;0.40;;;9.00;97.30;;;;;;4984977;28;20253;-78
2023/03/22 05:16:33;;;;;;;0.40;0.40;;;9.10;97.50;;;;;;4985297;28;20190;-76
2023/03/22 05:19:01;;;;;;;0.47;0.47;;;9.10;97.50;;;;;;4979586;28;20621;-78
2023/03/22 05:21:28;;;;;;;0.67;0.50;;;9.10;97.50;;;;;;4981530;28;20587;-79
2023/03/22 05:23:55;;;;;;;1.03;0.60;;;9.10;97.40;;;;;;4981187;28;20185;-77
2023/03/22 05:26:23;;;;;;;0.67;0.67;;;9.10;97.20;;;;;;4979417;28;20680;-77
2023/03/22 05:28:53;;;;;;;0.70;0.67;;;9.20;97.30;;;;;;4985800;28;20185;-77
2023/03/22 05:31:23;;;;;;;0.60;0.60;;;9.20;96.80;;;;;;4978333;28;20210;-75
2023/03/22 05:33:50;;;;;;;0.70;0.70;;;9.30;96.20;;;;;;4984137;28;20209;-77
2023/03/22 05:36:17;;;;;;;0.50;0.50;;;9.30;96.10;;;;;;4996241;28;20181;-76
2023/03/22 05:38:43;;;;;;;0.50;0.50;;;9.40;95.80;;;;;;4981430;28;20172;-77
2023/03/22 05:41:10;;;;;;;0.70;0.70;;;9.40;95.40;;;;;;4984025;28;20177;-81
2023/03/22 05:43:36;;;;;;;0.80;0.80;;;9.40;95.80;;;;;;4982979;28;20170;-77
2023/03/22 05:46:10;;;;;;;0.70;0.70;;;9.40;95.70;;;;;;4979761;28;20194;-78
2023/03/22 05:48:37;;;;;;;0.80;0.80;;;9.40;94.90;;;;;;4983128;28;20691;-78
2023/03/22 05:51:08;;;;;;;0.60;0.60;;;9.40;95.30;;;;;;4980894;28;20248;-79
2023/03/22 05:53:34;;;;;;;1.00;1.00;;;9.40;95.70;;;;;;4982737;28;20702;-78
2023/03/22 05:56:00;;;;;;;0.70;0.70;;;9.50;95.30;;;;;;4979085;28;20186;-78
2023/03/22 05:58:30;;;;;;;0.93;0.93;;;9.40;95.50;;;;;;4982705;28;20180;-78
2023/03/22 06:01:05;;;;;;;0.80;0.80;;;9.40;95.70;;;;;;4976879;28;20194;-79
2023/03/22 06:03:30;;;;;;;1.23;0.87;;;9.40;95.90;;;;;;4981020;28;20718;-81
2023/03/22 06:05:56;;;;;;;0.70;0.70;;;9.40;96.20;;;;;;4975190;28;20253;-75
2023/03/22 06:08:23;;;;;;;0.60;0.60;;;9.40;95.70;;;;;;4983019;28;20577;-75
2023/03/22 06:10:50;;;;;;;0.73;0.70;;;9.50;95.60;;;;;;4979129;28;20217;-75
2023/03/22 06:13:17;;;;;;;0.60;0.60;;;9.40;95.30;;;;;;4974878;28;20208;-76
2023/03/22 06:15:42;;;;;;;1.30;0.70;;;9.40;95.40;;;;;;4979412;28;20243;-74
2023/03/22 06:18:08;;;;;;;0.83;0.83;;;9.40;95.30;;;;;;4976122;28;20727;-74
2023/03/22 06:20:34;;;;;;;0.80;0.80;;;9.40;95.20;;;;;;4979344;28;20193;-75
2023/03/22 06:23:00;;;;;;;0.67;0.67;;;9.50;95.30;;;;;;4973605;28;20742;-76
2023/03/22 06:25:25;;;;;;;0.77;0.77;;;9.50;95.30;;;;;;4979975;28;20193;-76
2023/03/22 06:27:51;;;;;;;4.33;1.13;;;9.50;95.40;;;;;;4977090;28;20191;-75
2023/03/22 06:30:19;;;;;;;0.60;0.60;;;9.60;95.20;;;;;;4979812;28;20260;-76
2023/03/22 06:32:44;;;;;;;0.60;0.60;;;9.70;94.50;;;;;;4984900;28;20236;-76
2023/03/22 06:35:10;;;;;;;0.70;0.60;;;9.70;94.20;;;;;;4975653;28;20720;-75
2023/03/22 06:37:36;;;;;;;0.60;0.60;;;9.80;93.70;;;;;;4978286;28;20205;-77
2023/03/22 06:40:02;;;;;;;0.70;0.70;;;9.80;93.40;;;;;;4980382;28;20320;-75
2023/03/22 06:42:29;;;;;;;0.83;0.83;;;9.90;93.10;;;;;;4975668;28;20182;-75
2023/03/22 06:44:56;;;;;;;0.80;0.80;;;9.90;93.20;;;;;;4977188;28;20277;-75
2023/03/22 06:47:21;;;;;;;4.83;0.73;;;9.90;93.10;;;;;;4980679;28;20198;-77
2023/03/22 06:49:47;;;;;;;0.87;0.80;;;10.00;92.80;;;;;;4980684;28;20567;-76
2023/03/22 06:52:13;;;;;;;0.90;0.90;;;10.00;92.70;;;;;;4982719;28;20342;-77
2023/03/22 06:54:38;;;;;;;1.17;1.17;;;10.00;92.30;;;;;;4981927;28;20261;-74
2023/03/22 06:57:04;;;;;;;2.90;2.70;;;10.10;92.30;;;;;;4977031;28;20182;-74
2023/03/22 06:59:30;;;;;;;2.50;2.40;;;10.10;92.10;;;;;;4981568;28;20185;-76
2023/03/22 07:01:55;;;;;;;3.57;3.03;;;10.20;91.90;;;;;;4982467;28;20179;-75
2023/03/22 07:04:21;;;;;;;3.17;2.90;;;10.20;92.00;;;;;;4976506;28;20690;-75
2023/03/22 07:06:47;;;;;;;5.40;2.77;;;10.10;92.30;;;;;;4976663;28;20197;-75
2023/03/22 07:09:13;;;;;;;1.90;1.80;;;10.20;92.40;;;;;;4979222;28;20177;-74
2023/03/22 07:11:38;;;;;;;1.63;1.53;;;10.20;91.90;;;;;;4976578;28;21094;-75
2023/03/22 07:14:04;;;;;;;1.53;1.53;;;10.20;91.70;;;;;;4981224;28;20182;-75
2023/03/22 07:16:29;;;;;;;1.13;1.13;;;10.20;91.80;;;;;;4978245;28;20656;-74
2023/03/22 07:18:56;;;;;;;1.07;1.07;;;10.20;91.80;;;;;;4981880;28;20182;-74
2023/03/22 07:21:21;;;;;;;1.77;1.67;;;10.20;91.60;;;;;;4987517;28;20193;-75
2023/03/22 07:23:47;;;;;;;1.70;1.60;;;10.30;91.30;;;;;;4983193;28;20174;-75
2023/03/22 07:26:13;;;;;;;1.30;1.30;;;10.30;91.30;;;;;;4977915;28;20177;-75
2023/03/22 07:28:40;;;;;;;1.73;1.40;;;10.30;91.30;;;;;;4981414;28;20181;-75
2023/03/22 07:31:10;;;;;;;1.33;1.23;;;10.40;91.60;;;;;;4981139;28;20686;-75
2023/03/22 07:33:37;;;;;;;1.33;1.30;;;10.50;91.80;;;;;;4981423;28;20186;-76
2023/03/22 07:36:03;;;;;;;1.23;1.23;;;10.50;91.90;;;;;;4983061;28;20256;-75
2023/03/22 07:38:29;;;;;;;1.20;1.20;;;10.60;91.70;;;;;;4981376;28;20573;-76
2023/03/22 07:40:55;;;;;;;1.37;1.37;;;10.60;91.60;;;;;;4979042;28;20191;-75
2023/03/22 07:43:21;;;;;;;1.47;1.47;;;10.70;91.20;;;;;;4981371;28;20224;-74
2023/03/22 07:45:51;;;;;;;1.60;1.17;;;10.70;90.80;;;;;;4984916;28;20276;-74
2023/03/22 07:48:21;;;;;;;1.20;1.13;;;10.70;90.50;;;;;;4982438;28;20222;-75
2023/03/22 07:50:47;;;;;;;1.20;1.20;;;10.70;90.20;;;;;;4979660;28;20202;-75
2023/03/22 07:53:13;;;;;;;1.00;1.00;;;10.70;90.50;;;;;;4987973;28;20185;-75
2023/03/22 07:55:41;;;;;;;1.40;1.30;;;10.70;90.70;;;;;;4982077;28;20188;-75
2023/03/22 07:58:08;;;;;;;1.67;1.67;;;10.70;90.90;;;;;;4982171;28;20190;-75
2023/03/22 08:00:33;;;;;;;1.07;1.07;;;10.80;90.50;;;;;;4984371;28;20216;-75
2023/03/22 08:03:00;;;;;;;1.37;1.37;;;10.80;89.80;;;;;;4986161;28;20221;-74
2023/03/22 08:05:26;;;;;;;1.67;1.48;;;10.80;89.60;;;;;;4981308;28;20730;-75
2023/03/22 08:07:53;;;;;;;1.75;1.65;;;10.80;89.90;;;;;;4980115;28;20182;-74
2023/03/22 08:10:19;;;;;;;2.65;2.45;;;10.70;90.20;;;;;;4981722;28;20198;-75
2023/03/22 08:12:45;;;;;;;1.83;1.80;;;10.80;90.20;;;;;;4982028;28;20193;-75
2023/03/22 08:15:11;;;;;;;2.10;1.90;;;10.70;90.20;;;;;;4975170;28;20627;-75
2023/03/22 08:17:36;;;;;;;1.53;1.43;;;10.70;90.30;;;;;;4982262;28;20193;-75
2023/03/22 08:20:07;;;;;;;1.50;1.40;;;10.70;90.30;;;;;;4983472;28;20616;-75
2023/03/22 08:22:35;;;;;;;1.97;1.87;;;10.70;90.30;;;;;;4977680;28;20676;-75
2023/03/22 08:25:01;;;;;;;5.50;1.37;;;10.70;90.50;;;;;;4984365;28;20190;-75
2023/03/22 08:27:27;;;;;;;1.00;1.00;;;10.70;90.20;;;;;;4983796;28;20664;-75
2023/03/22 08:29:53;;;;;;;1.33;1.27;;;10.80;89.40;;;;;;4982488;28;20182;-79
2023/03/22 08:32:19;;;;;;;3.22;1.23;;;10.80;89.50;;;;;;4983790;28;20180;-78
2023/03/22 08:34:44;;;;;;;1.42;1.33;;;10.70;89.30;;;;;;4987375;28;20268;-76
2023/03/22 08:37:11;;;;;;;1.00;1.00;;;10.70;89.60;;;;;;4986202;28;20563;-75
2023/03/22 08:39:37;;;;;;;1.35;1.25;;;10.70;89.80;;;;;;4979589;28;20465;-76
2023/03/22 08:42:04;;;;;;;1.10;1.00;;;10.70;87.70;;;;;;4980491;28;20201;-75
2023/03/22 08:44:30;;;;;;;1.60;1.47;;;10.80;89.40;;;;;;4983845;28;20276;-76
2023/03/22 08:46:55;;;;;;;1.23;1.20;;;10.80;89.50;;;;;;4958677;28;21245;-76
2023/03/22 08:49:22;;;;;;;1.40;1.33;;;10.80;89.40;;;;;;4972862;28;20210;-76
2023/03/22 08:51:47;;;;;;;1.03;1.03;;;10.80;89.50;;;;;;4970755;28;20261;-76
2023/03/22 08:54:13;;;;;;;1.58;1.58;;;10.70;90.00;;;;;;4969340;28;20194;-76
2023/03/22 08:56:40;;;;;;;2.17;2.08;;;10.80;90.00;;;;;;4979087;28;20185;-76
2023/03/22 08:59:08;;;;;;;5.23;4.73;;;10.80;90.20;;;;;;4978061;28;20274;-76
2023/03/22 09:01:34;;;;;;;4.68;4.28;;;10.80;90.40;;;;;;4977840;28;20189;-76
2023/03/22 09:04:00;;;;;;;4.07;3.77;;;10.80;90.90;;;;;;4979676;28;20186;-77
2023/03/22 09:06:26;;;;;;;3.38;3.17;;;10.80;91.00;;;;;;4984427;28;20261;-77
2023/03/22 09:08:53;;;;;;;2.10;2.00;;;10.90;90.90;;;;;;4979827;28;20253;-77
2023/03/22 09:11:19;;;;;;;2.50;2.33;;;10.90;91.00;;;;;;4980438;28;20664;-77
2023/03/22 09:13:46;;;;;;;3.50;2.78;;;10.80;91.20;;;;;;4976112;28;20182;-77
2023/03/22 09:16:12;;;;;;;2.40;2.25;;;10.80;91.20;;;;;;4976391;28;20606;-77
2023/03/22 09:18:38;;;;;;;2.97;2.45;;;10.80;91.10;;;;;;4984566;28;20244;-76
2023/03/22 09:21:06;;;;;;;2.30;2.20;;;10.80;91.20;;;;;;4984648;28;20187;-77
2023/03/22 09:23:32;;;;;;;2.77;2.67;;;10.70;90.70;;;;;;4975383;28;20228;-77
2023/03/22 09:26:04;;;;;;;2.70;2.55;;;10.70;90.70;;;;;;4977476;28;20625;-77
2023/03/22 09:28:30;;;;;;;2.78;2.58;;;10.70;90.80;;;;;;4980912;28;20185;-77
2023/03/22 09:31:05;;;;;;;2.03;1.92;;;10.70;91.30;;;;;;4973336;28;20301;-77
2023/03/22 09:33:32;;;;;;;2.03;1.80;;;10.60;91.40;;;;;;4984979;28;20193;-77
2023/03/22 09:35:58;;;;;;;1.57;1.47;;;10.60;91.90;;;;;;4981505;28;20210;-77
2023/03/22 09:38:26;;;;;;;1.90;1.80;;;10.60;91.90;;;;;;4978944;28;20178;-77
2023/03/22 09:41:01;;;;;;;1.83;1.40;;;10.60;91.90;;;;;;4979037;28;20318;-77
2023/03/22 09:43:47;;;;;;;3.00;2.07;;;10.60;91.90;;;;;;4980799;28;20170;-76
2023/03/22 09:46:18;;;;;;;2.17;2.07;;;10.70;91.60;;;;;;4979989;28;20190;-77
2023/03/22 09:48:46;;;;;;;1.13;1.13;;;10.60;92.10;;;;;;4979732;28;20230;-77
2023/03/22 09:51:27;;;;;;;1.07;1.07;;;10.60;92.00;;;;;;4981236;28;20264;-77
2023/03/22 09:53:53;;;;;;;1.83;1.63;;;10.60;92.10;;;;;;4981320;28;20204;-77
2023/03/22 09:56:25;;;;;;;1.38;1.30;;;10.60;92.60;;;;;;4979561;28;20182;-77
2023/03/22 09:58:54;;;;;;;1.33;1.33;;;10.60;92.50;;;;;;4979957;28;20679;-77
2023/03/22 10:01:27;;;;;;;1.10;1.10;;;10.70;92.30;;;;;;4977467;28;20186;-77
2023/03/22 10:03:56;;;;;;;0.60;0.60;;;10.70;92.00;;;;;;4977341;28;20178;-77
2023/03/22 10:06:24;;;;;;;1.20;1.20;;;10.80;91.40;;;;;;4984314;28;20186;-77
2023/03/22 10:09:25;;;;;;;1.45;1.45;;;10.90;91.40;;;;;;4984247;28;20204;-78
2023/03/22 10:12:21;;;;;;;2.15;1.02;;;10.90;91.10;;;;;;4981131;28;20260;-77
2023/03/22 10:15:01;;;;;;;1.70;1.60;;;11.00;90.50;;;;;;4976478;28;20753;-76
2023/03/22 10:17:29;;;;;;;1.63;1.60;;;11.00;90.20;;;;;;4979163;28;20184;-76
2023/03/22 10:20:07;;;;;;;2.03;1.95;;;11.00;90.30;;;;;;4978347;28;20198;-76
2023/03/22 10:22:43;;;;;;;2.47;1.83;;;10.90;90.30;;;;;;4979362;28;20667;-76
2023/03/22 10:25:17;;;;;;;2.25;2.13;;;10.90;90.20;;;;;;4981099;28;20186;-77
2023/03/22 10:27:45;;;;;;;2.25;2.05;;;10.90;90.20;;;;;;4980083;28;20205;-77
2023/03/22 10:30:24;;;;;;;2.00;1.90;;;10.80;90.00;;;;;;4981518;28;20266;-76
2023/03/22 10:33:03;;;;;;;1.45;1.35;;;10.90;90.00;;;;;;4978239;28;20181;-77
2023/03/22 10:35:30;;;;;;;1.42;1.33;;;10.90;90.10;;;;;;4977160;28;20178;-77
2023/03/22 10:38:00;;;;;;;1.15;1.15;;;10.90;89.90;;;;;;4979070;28;20279;-77
2023/03/22 10:40:32;;;;;;;1.65;1.55;;;11.00;89.90;;;;;;4978089;28;20272;-76
2023/03/22 10:43:17;;;;;;;1.92;1.83;;;11.00;89.90;;;;;;4982300;28;20680;-76
2023/03/22 10:45:43;;;;;;;1.92;1.63;;;11.10;89.40;;;;;;4976631;28;20201;-76
2023/03/22 10:48:27;;;;;;;1.88;1.88;;;11.10;89.90;;;;;;4977713;28;20189;-77
2023/03/22 10:50:54;;;;;;;1.42;1.30;;;11.20;90.00;;;;;;4979308;28;20201;-77
2023/03/22 10:53:29;;;;;;;1.15;1.15;;;11.20;89.90;;;;;;4980295;28;20246;-77
2023/03/22 10:55:55;;;;;;;1.33;1.33;;;11.30;89.40;;;;;;4988371;28;20197;-77
2023/03/22 10:58:27;;;;;;;1.50;1.40;;;11.30;89.10;;;;;;4982826;28;20266;-77
2023/03/22 11:00:58;;;;;;;1.50;1.50;;;11.30;89.10;;;;;;4983102;28;20185;-77
2023/03/22 11:03:36;;;;;;;1.27;1.23;;;11.30;88.90;;;;;;4984329;28;20542;-76
2023/03/22 11:06:01;;;;;;;3.03;2.70;;;11.30;89.00;;;;;;4981587;28;20186;-77
2023/03/22 11:08:27;;;;;;;5.32;3.28;;;11.30;89.20;;;;;;4980302;28;20185;-77
2023/03/22 11:10:57;;;;;;;4.45;3.58;;;11.30;89.30;;;;;;4978425;28;20221;-76
2023/03/22 11:13:24;;;;;;;3.60;3.38;;;11.30;89.10;;;;;;4984099;28;20590;-77
2023/03/22 11:16:02;;;;;;;3.33;3.13;;;11.30;89.00;;;;;;4980728;28;20178;-75
2023/03/22 11:18:31;;;;;;;2.60;2.40;;;11.30;89.00;;;;;;4982666;28;20340;-76
2023/03/22 11:21:06;;;;;;;2.42;2.33;;;11.30;89.60;;;;;;4981982;28;20742;-76
2023/03/22 11:23:33;;;;;;;1.67;1.67;;;11.30;89.40;;;;;;4986243;28;20643;-76
2023/03/22 11:26:10;;;;;;;2.38;2.17;;;11.30;89.30;;;;;;4978170;28;20216;-76
2023/03/22 11:28:44;;;;;;;2.08;1.92;;;11.40;88.90;;;;;;4979835;28;20190;-76
2023/03/22 11:31:14;;;;;;;2.65;2.50;;;11.40;89.00;;;;;;4979465;28;20279;-76
2023/03/22 11:34:00;;;;;;;3.00;2.55;;;11.40;89.00;;;;;;4980142;28;20182;-76
2023/03/22 11:36:27;;;;;;;2.10;2.00;;;11.40;88.60;;;;;;4980500;28;20189;-76
2023/03/22 11:38:59;;;;;;;2.63;2.42;;;11.40;88.80;;;;;;4982423;28;20197;-78
2023/03/22 11:41:37;;;;;;;3.17;2.80;;;11.40;88.60;;;;;;4979486;28;20182;-75
2023/03/22 11:44:16;;;;;;;2.67;2.47;;;11.40;88.90;;;;;;4984051;28;20565;-73
2023/03/22 11:46:56;;;;;;;3.67;3.17;;;11.40;88.60;;;;;;4981936;28;20190;-72
2023/03/22 11:49:25;;;;;;;5.07;3.78;;;11.40;89.00;;;;;;4982090;28;20651;-79
2023/03/22 11:51:53;;;;;;;4.47;4.07;;;11.40;89.60;;;;;;4991961;28;20222;-79
2023/03/22 11:54:35;;;;;;;9.10;4.83;;;11.30;89.70;;;;;;4983354;28;20178;-75
2023/03/22 11:57:04;;;;;;;9.77;5.90;;;11.30;89.40;;;;;;4981776;28;20265;-74
2023/03/22 11:59:47;;;;;;;10.70;7.22;;;11.30;89.80;;;;;;4978185;28;21357;-74
2023/03/22 12:02:30;;;;;;;10.43;7.97;;;11.30;89.90;;;;;;4970936;28;20264;-75
2023/03/22 12:05:04;;;;;;;11.63;7.38;;;11.30;90.20;;;;;;4973995;28;20260;-74
2023/03/22 12:07:33;;;;;;;11.80;7.73;;;11.30;90.50;;;;;;4977851;28;20211;-74
2023/03/22 12:10:09;;;;;;;12.20;7.22;;;11.30;90.90;;;;;;4968026;28;20212;-76
2023/03/22 12:12:39;;;;;;;7.60;5.65;;;11.30;91.00;;;;;;4971289;28;20286;-75
2023/03/22 12:15:05;;;;;;;7.70;4.93;;;11.30;91.00;;;;;;4975351;28;20209;-77
2023/03/22 12:17:41;;;;;;;2.95;2.75;;;11.40;91.20;;;;;;4973178;28;20205;-75
2023/03/22 12:20:20;;;;;;;3.90;3.47;;;11.40;90.70;;;;;;4975005;28;20339;-76
2023/03/22 12:22:53;;;;;;;3.67;3.42;;;11.40;90.40;;;;;;4971774;28;20597;-75
2023/03/22 12:25:23;;;;;;;1.70;1.70;;;11.50;90.50;;;;;;4972795;28;20612;-75
2023/03/22 12:28:12;;;;;;;1.45;1.10;;;11.50;89.90;;;;;;4971701;28;20237;-76
2023/03/22 12:30:48;;;;;;;1.20;1.20;;;11.50;87.80;;;;;;4969277;28;20745;-75
2023/03/22 12:33:28;;;;;;;1.65;1.55;;;11.50;87.80;;;;;;4972552;28;20592;-76
2023/03/22 12:36:03;;;;;;;1.85;0.90;;;11.60;88.10;;;;;;4968201;28;20221;-75
2023/03/22 12:38:43;;;;;;;0.73;0.73;;;11.60;87.70;;;;;;4989455;28;20221;-78
2023/03/22 12:41:14;;;;;;;0.80;0.80;;;11.70;87.10;;;;;;4979434;28;20205;-76
2023/03/22 12:43:52;;;;;;;0.85;0.85;;;11.70;86.30;;;;;;4974211;28;20589;-76
2023/03/22 12:46:28;;;;;;;0.80;0.80;;;11.70;86.30;;;;;;4975435;28;21390;-76
2023/03/22 12:49:16;;;;;;;1.00;1.00;;;11.70;85.90;;;;;;4983031;28;20473;-78
2023/03/22 12:51:42;;;;;;;0.70;0.70;;;11.80;86.40;;;;;;4978765;28;20229;-78
2023/03/22 12:54:12;;;;;;;0.90;0.90;;;11.80;86.40;;;;;;4968294;28;20712;-78
2023/03/22 12:56:42;;;;;;;0.80;0.80;;;11.90;85.20;;;;;;4976859;28;20898;-74
2023/03/22 12:59:20;;;;;;;0.65;0.65;;;12.00;85.10;;;;;;4969611;28;20202;-76
2023/03/22 13:02:11;;;;;;;0.85;0.57;;;12.10;85.10;;;;;;4970664;28;20247;-74
2023/03/22 13:04:42;;;;;;;0.40;0.40;;;12.20;84.60;;;;;;4970419;28;20197;-75